createdAt,value
2023-05-19T00:00:21.400Z,102286.53
2023-05-19T00:02:51.019Z,102290.69
2023-05-19T00:05:19.428Z,102291.00
2023-05-19T00:07:47.990Z,102284.94
2023-05-19T00:10:17.171Z,102285.69
2023-05-19T00:12:45.988Z,102291.06
2023-05-19T00:15:14.604Z,102297.66
2023-05-19T00:17:42.530Z,102291.19
2023-05-19T00:20:12.808Z,102288.44
2023-05-19T00:22:40.370Z,102292.84
2023-05-19T00:25:08.482Z,102295.53
2023-05-19T00:27:35.929Z,102299.53
2023-05-19T00:30:03.344Z,102291.38
2023-05-19T00:32:31.137Z,102291.16
2023-05-19T00:34:58.801Z,102296.53
2023-05-19T00:37:27.798Z,102303.28
2023-05-19T00:39:55.230Z,102300.25
2023-05-19T00:42:22.823Z,102290.44
2023-05-19T00:44:50.394Z,102296.00
2023-05-19T00:47:17.831Z,102291.31
2023-05-19T00:49:45.262Z,102293.47
2023-05-19T00:52:12.745Z,102301.19
2023-05-19T00:54:41.711Z,102299.88
2023-05-19T00:57:09.221Z,102299.16
2023-05-19T00:59:36.798Z,102292.22
2023-05-19T01:02:04.432Z,102299.66
2023-05-19T01:04:34.930Z,102291.28
2023-05-19T01:07:02.482Z,102291.59
2023-05-19T01:09:30.644Z,102297.72
2023-05-19T01:11:59.673Z,102292.44
2023-05-19T01:14:27.892Z,102299.50
2023-05-19T01:17:05.296Z,102305.69
2023-05-19T01:19:48.721Z,102294.19
2023-05-19T01:22:29.261Z,102283.81
2023-05-19T01:25:20.810Z,102286.00
2023-05-19T01:28:07.321Z,102294.25
2023-05-19T01:30:39.923Z,102292.09
2023-05-19T01:33:10.068Z,102289.03
2023-05-19T01:35:38.837Z,102299.25
2023-05-19T01:38:09.662Z,102291.28
2023-05-19T01:40:38.611Z,102295.41
2023-05-19T01:43:08.780Z,102298.22
2023-05-19T01:45:38.003Z,102304.25
2023-05-19T01:48:08.543Z,102297.72
2023-05-19T01:50:38.416Z,102300.19
2023-05-19T01:53:06.129Z,102300.00
2023-05-19T01:55:33.684Z,102292.31
2023-05-19T01:58:08.479Z,102294.88
2023-05-19T02:00:48.276Z,102297.09
2023-05-19T02:03:33.644Z,102309.25
2023-05-19T02:06:09.586Z,102299.09
2023-05-19T02:08:44.335Z,102303.63
2023-05-19T02:11:21.630Z,102302.44
2023-05-19T02:13:52.108Z,102290.84
2023-05-19T02:16:27.455Z,102292.94
2023-05-19T02:18:56.504Z,102300.19
2023-05-19T02:21:24.031Z,102304.72
2023-05-19T02:23:51.584Z,102303.78
2023-05-19T02:26:19.039Z,102300.00
2023-05-19T02:28:46.474Z,102303.44
2023-05-19T02:31:13.920Z,102292.34
2023-05-19T02:33:43.038Z,102287.63
2023-05-19T02:36:10.600Z,102288.13
2023-05-19T02:38:38.064Z,102280.84
2023-05-19T02:41:05.621Z,102284.44
2023-05-19T02:43:33.063Z,102289.56
2023-05-19T02:46:00.728Z,102278.38
2023-05-19T02:48:28.189Z,102284.06
2023-05-19T02:50:56.958Z,102281.44
2023-05-19T02:53:24.538Z,102279.72
2023-05-19T02:55:52.238Z,102279.72
2023-05-19T02:58:20.676Z,102292.81
2023-05-19T03:00:48.184Z,102283.56
2023-05-19T03:03:15.725Z,102285.41
2023-05-19T03:05:43.609Z,102284.47
2023-05-19T03:08:12.363Z,102287.31
2023-05-19T03:10:39.924Z,102293.44
2023-05-19T03:13:07.363Z,102288.50
2023-05-19T03:15:35.260Z,102282.91
2023-05-19T03:18:02.765Z,102283.97
2023-05-19T03:20:30.795Z,102283.44
2023-05-19T03:22:58.680Z,102278.19
2023-05-19T03:25:27.509Z,102288.03
2023-05-19T03:27:54.916Z,102283.34
2023-05-19T03:30:22.417Z,102283.88
2023-05-19T03:32:52.137Z,102286.13
2023-05-19T03:35:19.960Z,102278.72
2023-05-19T03:37:47.427Z,102284.47
2023-05-19T03:40:15.499Z,102275.28
2023-05-19T03:42:44.449Z,102290.56
2023-05-19T03:45:12.200Z,102278.69
2023-05-19T03:47:39.718Z,102280.03
2023-05-19T03:50:08.186Z,102279.84
2023-05-19T03:52:36.257Z,102275.47
2023-05-19T03:55:03.737Z,102266.25
2023-05-19T03:57:31.204Z,102276.91
2023-05-19T03:59:59.947Z,102268.31
2023-05-19T04:02:27.428Z,102263.78
2023-05-19T04:04:54.970Z,102272.75
2023-05-19T04:07:22.532Z,102264.34
2023-05-19T04:09:50.126Z,102272.66
2023-05-19T04:12:17.720Z,102266.91
2023-05-19T04:14:45.227Z,102247.97
2023-05-19T04:17:14.074Z,102247.81
2023-05-19T04:19:41.544Z,102243.22
2023-05-19T04:22:08.990Z,102251.09
2023-05-19T04:24:36.538Z,102247.75
2023-05-19T04:27:04.809Z,102262.94
2023-05-19T04:29:32.656Z,102263.97
2023-05-19T04:32:00.937Z,102269.47
2023-05-19T04:34:29.693Z,102272.06
2023-05-19T04:36:57.452Z,102270.16
2023-05-19T04:39:24.908Z,102275.31
2023-05-19T04:41:54.012Z,102273.28
2023-05-19T04:44:21.438Z,102272.50
2023-05-19T04:46:49.968Z,102273.28
2023-05-19T04:49:19.201Z,102284.03
2023-05-19T04:51:50.266Z,102279.88
2023-05-19T04:54:18.074Z,102289.34
2023-05-19T04:56:45.654Z,102294.53
2023-05-19T04:59:13.099Z,102289.03
2023-05-19T05:01:41.010Z,102292.78
2023-05-19T05:04:08.683Z,102283.69
2023-05-19T05:06:38.712Z,102282.28
2023-05-19T05:09:07.734Z,102282.69
2023-05-19T05:11:35.761Z,102280.09
2023-05-19T05:14:03.719Z,102281.69
2023-05-19T05:16:32.012Z,102277.41
2023-05-19T05:19:00.158Z,102274.53
2023-05-19T05:21:28.955Z,102288.72
2023-05-19T05:23:56.978Z,102279.31
2023-05-19T05:26:31.286Z,102281.56
2023-05-19T05:28:58.707Z,102273.50
2023-05-19T05:31:26.427Z,102276.56
2023-05-19T05:33:54.144Z,102282.16
2023-05-19T05:36:21.607Z,102292.53
2023-05-19T05:38:49.060Z,102280.94
2023-05-19T05:41:16.806Z,102280.31
2023-05-19T05:43:45.636Z,102285.28
2023-05-19T05:46:13.125Z,102275.44
2023-05-19T05:48:42.679Z,102277.78
2023-05-19T05:51:10.864Z,102270.66
2023-05-19T05:53:42.900Z,102285.06
2023-05-19T05:56:11.938Z,102279.88
2023-05-19T05:58:40.734Z,102271.00
2023-05-19T06:01:11.480Z,102276.47
2023-05-19T06:03:40.153Z,102277.22
2023-05-19T06:06:08.045Z,102272.59
2023-05-19T06:08:35.577Z,102267.25
2023-05-19T06:11:08.179Z,102277.28
2023-05-19T06:13:36.097Z,102268.22
2023-05-19T06:16:03.803Z,102264.75
2023-05-19T06:18:32.687Z,102271.97
2023-05-19T06:21:01.650Z,102279.25
2023-05-19T06:23:29.232Z,102265.50
2023-05-19T06:25:57.753Z,102272.47
2023-05-19T06:28:25.227Z,102269.69
2023-05-19T06:30:52.665Z,102280.91
2023-05-19T06:33:20.100Z,102269.59
2023-05-19T06:35:48.850Z,102265.19
2023-05-19T06:38:16.390Z,102269.53
2023-05-19T06:40:43.965Z,102267.91
2023-05-19T06:43:11.492Z,102264.50
2023-05-19T06:45:38.942Z,102270.34
2023-05-19T06:48:06.703Z,102264.47
2023-05-19T06:50:34.404Z,102260.75
2023-05-19T06:53:03.407Z,102271.84
2023-05-19T06:55:30.898Z,102271.69
2023-05-19T06:57:58.396Z,102267.03
2023-05-19T07:00:25.911Z,102278.50
2023-05-19T07:02:53.466Z,102275.66
2023-05-19T07:05:21.635Z,102267.97
2023-05-19T07:07:49.109Z,102261.06
2023-05-19T07:10:17.908Z,102268.97
2023-05-19T07:12:45.413Z,102264.91
2023-05-19T07:15:12.858Z,102271.41
2023-05-19T07:17:40.311Z,102270.53
2023-05-19T07:20:10.026Z,102270.88
2023-05-19T07:22:38.538Z,102259.63
2023-05-19T07:25:06.581Z,102267.50
2023-05-19T07:27:35.866Z,102265.53
2023-05-19T07:30:03.982Z,102273.97
2023-05-19T07:32:31.503Z,102265.28
2023-05-19T07:34:59.079Z,102264.00
2023-05-19T07:37:26.998Z,102253.50
2023-05-19T07:39:54.559Z,102258.25
2023-05-19T07:42:22.027Z,102254.66
2023-05-19T07:44:50.848Z,102262.72
2023-05-19T07:47:18.299Z,102255.84
2023-05-19T07:49:46.053Z,102244.53
2023-05-19T07:52:13.522Z,102253.25
2023-05-19T07:54:41.114Z,102251.84
2023-05-19T07:57:08.585Z,102261.28
2023-05-19T07:59:36.047Z,102247.28
2023-05-19T08:02:04.939Z,102240.66
2023-05-19T08:04:32.941Z,102246.63
2023-05-19T08:07:00.546Z,102240.44
2023-05-19T08:09:27.988Z,102243.66
2023-05-19T08:11:55.647Z,102250.66
2023-05-19T08:14:23.185Z,102247.25
2023-05-19T08:16:51.733Z,102247.38
2023-05-19T08:19:20.792Z,102248.81
2023-05-19T08:21:48.357Z,102247.34
2023-05-19T08:24:15.866Z,102247.88
2023-05-19T08:26:44.838Z,102252.44
2023-05-19T08:29:12.349Z,102259.91
2023-05-19T08:31:39.818Z,102260.78
2023-05-19T08:34:07.338Z,102256.44
2023-05-19T08:36:36.093Z,102260.59
2023-05-19T08:39:03.725Z,102248.78
2023-05-19T08:41:31.269Z,102247.09
2023-05-19T08:43:58.943Z,102243.13
2023-05-19T08:46:26.910Z,102239.59
2023-05-19T08:48:57.395Z,102244.69
2023-05-19T08:51:32.335Z,102230.44
2023-05-19T08:54:08.908Z,102233.59
2023-05-19T08:56:36.888Z,102246.72
2023-05-19T08:59:04.565Z,102237.91
2023-05-19T09:01:32.841Z,102226.75
2023-05-19T09:04:00.633Z,102236.88
2023-05-19T09:06:28.276Z,102231.50
2023-05-19T09:08:55.902Z,102220.53
2023-05-19T09:11:24.689Z,102214.59
2023-05-19T09:13:52.131Z,102212.31
2023-05-19T09:16:19.800Z,102207.25
2023-05-19T09:18:55.930Z,102197.78
2023-05-19T09:21:30.940Z,102177.72
2023-05-19T09:23:59.023Z,102196.06
2023-05-19T09:26:37.474Z,102194.31
2023-05-19T09:29:11.901Z,102188.19
2023-05-19T09:31:39.680Z,102196.03
2023-05-19T09:34:13.645Z,102185.63
2023-05-19T09:36:42.213Z,102188.22
2023-05-19T09:39:16.636Z,102175.19
2023-05-19T09:41:45.868Z,102191.69
2023-05-19T09:44:14.280Z,102183.00
2023-05-19T09:46:48.809Z,102189.97
2023-05-19T09:49:20.491Z,102185.53
2023-05-19T09:51:50.362Z,102194.13
2023-05-19T09:54:18.036Z,102180.25
2023-05-19T09:56:47.189Z,102183.72
2023-05-19T09:59:16.335Z,102184.53
2023-05-19T10:01:46.489Z,102181.84
2023-05-19T10:04:15.584Z,102180.19
2023-05-19T10:06:43.720Z,102171.47
2023-05-19T10:09:11.659Z,102162.81
2023-05-19T10:11:39.930Z,102164.41
2023-05-19T10:14:09.310Z,102162.59
2023-05-19T10:16:37.242Z,102156.53
2023-05-19T10:19:06.114Z,102165.09
2023-05-19T10:21:33.573Z,102164.56
2023-05-19T10:24:01.008Z,102169.53
2023-05-19T10:26:29.598Z,102173.19
2023-05-19T10:28:58.405Z,102178.16
2023-05-19T10:31:27.976Z,102169.50
2023-05-19T10:34:06.495Z,102162.94
2023-05-19T10:36:46.553Z,102164.56
2023-05-19T10:39:20.031Z,102159.44
2023-05-19T10:41:54.739Z,102181.81
2023-05-19T10:44:35.371Z,102155.84
2023-05-19T10:47:07.386Z,102163.72
2023-05-19T10:49:37.030Z,102153.34
2023-05-19T10:52:05.306Z,102164.47
2023-05-19T10:54:43.296Z,102158.50
2023-05-19T10:57:16.231Z,102145.53
2023-05-19T10:59:44.582Z,102144.59
2023-05-19T11:02:40.996Z,102148.91
2023-05-19T11:05:10.551Z,102152.47
2023-05-19T11:07:38.156Z,102145.34
2023-05-19T11:10:09.280Z,102136.63
2023-05-19T11:12:42.676Z,102136.88
2023-05-19T11:15:13.138Z,102134.25
2023-05-19T11:17:43.239Z,102142.88
2023-05-19T11:20:23.443Z,102152.41
2023-05-19T11:23:07.061Z,102152.34
2023-05-19T11:25:46.748Z,102133.34
2023-05-19T11:28:17.283Z,102138.53
2023-05-19T11:30:46.561Z,102133.38
2023-05-19T11:33:15.446Z,102136.81
2023-05-19T11:35:44.472Z,102135.09
2023-05-19T11:38:12.417Z,102122.94
2023-05-19T11:40:40.436Z,102116.88
2023-05-19T11:43:07.929Z,102121.19
2023-05-19T11:45:36.013Z,102119.34
2023-05-19T11:48:04.035Z,102123.75
2023-05-19T11:50:33.398Z,102120.94
2023-05-19T11:53:02.116Z,102138.50
2023-05-19T11:55:30.700Z,102130.75
2023-05-19T12:00:30.990Z,102120.34
2023-05-19T12:02:58.907Z,102135.19
2023-05-19T12:05:28.133Z,102121.22
2023-05-19T12:07:57.045Z,102124.66
2023-05-19T12:10:25.249Z,102117.75
2023-05-19T12:12:53.334Z,102104.41
2023-05-19T12:15:21.913Z,102116.88
2023-05-19T12:17:51.236Z,102114.19
2023-05-19T12:20:19.988Z,102107.97
2023-05-19T12:22:48.754Z,102102.50
2023-05-19T12:25:18.843Z,102110.78
2023-05-19T12:27:48.557Z,102103.66
2023-05-19T12:30:17.154Z,102107.09
2023-05-19T12:32:44.835Z,102111.53
2023-05-19T12:35:12.610Z,102104.69
2023-05-19T12:37:42.902Z,102109.94
2023-05-19T12:40:11.434Z,102098.59
2023-05-19T12:42:45.755Z,102098.63
2023-05-19T12:45:13.223Z,102091.63
2023-05-19T12:47:40.863Z,102094.06
2023-05-19T12:50:10.309Z,102080.75
2023-05-19T12:52:43.812Z,102088.09
2023-05-19T12:55:12.257Z,102095.16
2023-05-19T12:57:42.936Z,102094.28
2023-05-19T13:00:17.593Z,102088.16
2023-05-19T13:03:00.566Z,102089.09
2023-05-19T13:05:29.143Z,102081.25
2023-05-19T13:07:57.700Z,102080.34
2023-05-19T13:10:26.982Z,102082.97
2023-05-19T13:12:56.903Z,102088.16
2023-05-19T13:15:26.167Z,102086.47
2023-05-19T13:17:55.229Z,102090.78
2023-05-19T13:20:22.884Z,102080.38
2023-05-19T13:22:51.347Z,102077.72
2023-05-19T13:25:18.944Z,102067.25
2023-05-19T13:27:46.942Z,102063.75
2023-05-19T13:30:16.717Z,102063.53
2023-05-19T13:32:44.202Z,102065.50
2023-05-19T13:35:12.042Z,102078.53
2023-05-19T13:37:40.084Z,102072.56
2023-05-19T13:40:08.836Z,102074.28
2023-05-19T13:42:37.167Z,102074.19
2023-05-19T13:45:05.824Z,102077.78
2023-05-19T13:47:34.802Z,102076.06
2023-05-19T13:50:04.499Z,102072.50
2023-05-19T13:52:32.531Z,102069.03
2023-05-19T13:55:00.242Z,102075.13
2023-05-19T13:57:27.932Z,102070.81
2023-05-19T14:00:02.803Z,102074.25
2023-05-19T14:02:32.096Z,102079.50
2023-05-19T14:05:00.952Z,102079.50
2023-05-19T14:07:28.603Z,102069.09
2023-05-19T14:09:56.281Z,102079.50
2023-05-19T14:12:33.902Z,102065.31
2023-05-19T14:15:09.066Z,102068.84
2023-05-19T14:17:37.333Z,102062.56
2023-05-19T14:20:07.428Z,102079.44
2023-05-19T14:22:34.948Z,102074.22
2023-05-19T14:25:02.958Z,102081.22
2023-05-19T14:27:31.257Z,102071.66
2023-05-19T14:29:58.790Z,102072.53
2023-05-19T14:32:28.657Z,102083.81
2023-05-19T14:34:57.715Z,102087.31
2023-05-19T14:37:28.959Z,102088.19
2023-05-19T14:40:01.395Z,102084.53
2023-05-19T14:42:28.961Z,102081.16
2023-05-19T14:44:56.651Z,102080.84
2023-05-19T14:47:25.650Z,102075.00
2023-05-19T14:49:53.882Z,102080.25
2023-05-19T14:52:34.648Z,102071.53
2023-05-19T14:55:02.162Z,102083.88
2023-05-19T14:57:31.563Z,102084.66
2023-05-19T14:59:59.019Z,102083.00
2023-05-19T15:02:27.613Z,102082.97
2023-05-19T15:04:56.963Z,102089.94
2023-05-19T15:07:24.670Z,102088.19
2023-05-19T15:09:53.604Z,102081.13
2023-05-19T15:12:21.103Z,102082.06
2023-05-19T15:14:48.538Z,102096.03
2023-05-19T15:17:16.162Z,102095.94
2023-05-19T15:19:43.662Z,102091.69
2023-05-19T15:22:11.135Z,102087.31
2023-05-19T15:24:38.564Z,102093.38
2023-05-19T15:27:08.405Z,102090.78
2023-05-19T15:29:35.958Z,102092.50
2023-05-19T15:32:03.600Z,102094.22
2023-05-19T15:34:31.195Z,102084.63
2023-05-19T15:36:58.703Z,102097.59
2023-05-19T15:39:26.314Z,102075.13
2023-05-19T15:41:53.821Z,102081.19
2023-05-19T15:44:22.666Z,102079.47
2023-05-19T15:46:50.195Z,102073.41
2023-05-19T15:49:18.231Z,102064.66
2023-05-19T15:51:46.048Z,102079.47
2023-05-19T15:54:13.518Z,102082.91
2023-05-19T15:56:40.985Z,102086.38
2023-05-19T15:59:08.419Z,102080.28
2023-05-19T16:01:37.569Z,102084.59
2023-05-19T16:04:05.724Z,102081.09
2023-05-19T16:06:33.335Z,102080.22
2023-05-19T16:09:00.940Z,102075.03
2023-05-19T16:11:28.575Z,102069.03
2023-05-19T16:13:56.052Z,102067.31
2023-05-19T16:16:23.563Z,102063.84
2023-05-19T16:18:52.433Z,102069.09
2023-05-19T16:21:20.486Z,102055.13
2023-05-19T16:23:47.966Z,102059.47
2023-05-19T16:26:15.467Z,102057.72
2023-05-19T16:28:42.932Z,102068.97
2023-05-19T16:31:10.396Z,102059.47
2023-05-19T16:33:37.868Z,102061.16
2023-05-19T16:36:07.391Z,102063.78
2023-05-19T16:38:34.936Z,102063.69
2023-05-19T16:41:04.393Z,102070.56
2023-05-19T16:43:33.406Z,102067.94
2023-05-19T16:46:03.372Z,102072.38
2023-05-19T16:48:30.983Z,102069.88
2023-05-19T16:50:59.348Z,102075.06
2023-05-19T16:53:28.130Z,102072.47
2023-05-19T16:55:55.703Z,102069.00
2023-05-19T16:58:23.141Z,102074.09
2023-05-19T17:00:52.432Z,102071.50
2023-05-19T17:03:20.210Z,102084.44
2023-05-19T17:05:47.800Z,102072.38
2023-05-19T17:08:15.237Z,102077.69
2023-05-19T17:10:44.812Z,102074.25
2023-05-19T17:13:12.364Z,102079.09
2023-05-19T17:15:42.318Z,102084.38
2023-05-19T17:18:11.692Z,102084.25
2023-05-19T17:20:39.215Z,102082.59
2023-05-19T17:23:06.952Z,102077.50
2023-05-19T17:25:35.082Z,102072.28
2023-05-19T17:28:03.952Z,102078.38
2023-05-19T17:30:31.605Z,102076.72
2023-05-19T17:32:59.758Z,102079.22
2023-05-19T17:35:28.502Z,102082.72
2023-05-19T17:37:57.856Z,102081.81
2023-05-19T17:40:25.488Z,102077.47
2023-05-19T17:42:52.956Z,102069.84
2023-05-19T17:45:21.906Z,102084.63
2023-05-19T17:47:49.485Z,102077.72
2023-05-19T17:50:16.983Z,102082.09
2023-05-19T17:52:45.005Z,102087.00
2023-05-19T17:55:13.712Z,102081.97
2023-05-19T17:57:45.193Z,102082.81
2023-05-19T18:00:14.160Z,102087.81
2023-05-19T18:02:43.803Z,102089.59
2023-05-19T18:05:12.465Z,102097.44
2023-05-19T18:07:43.067Z,102081.75
2023-05-19T18:10:11.879Z,102079.97
2023-05-19T18:12:39.320Z,102076.50
2023-05-19T18:15:07.640Z,102078.97
2023-05-19T18:17:35.137Z,102080.66
2023-05-19T18:20:04.326Z,102078.44
2023-05-19T18:22:40.113Z,102077.25
2023-05-19T18:25:08.449Z,102088.38
2023-05-19T18:27:35.894Z,102077.28
2023-05-19T18:30:04.927Z,102091.22
2023-05-19T18:32:35.146Z,102088.63
2023-05-19T18:35:05.186Z,102094.81
2023-05-19T18:37:32.810Z,102096.53
2023-05-19T18:40:03.989Z,102091.97
2023-05-19T18:42:31.519Z,102092.88
2023-05-19T18:45:00.924Z,102098.13
2023-05-19T18:47:34.815Z,102099.69
2023-05-19T18:50:05.631Z,102102.31
2023-05-19T18:52:35.164Z,102098.09
2023-05-19T18:55:03.362Z,102106.59
2023-05-19T18:57:31.020Z,102103.31
2023-05-19T18:59:59.091Z,102102.53
2023-05-19T19:02:26.653Z,102105.25
2023-05-19T19:04:54.232Z,102109.72
2023-05-19T19:07:25.263Z,102110.75
2023-05-19T19:09:52.938Z,102108.09
2023-05-19T19:12:20.675Z,102107.28
2023-05-19T19:14:51.069Z,102105.41
2023-05-19T19:17:19.153Z,102104.22
2023-05-19T19:19:47.163Z,102109.47
2023-05-19T19:22:14.727Z,102111.66
2023-05-19T19:24:45.819Z,102114.84
2023-05-19T19:27:17.800Z,102116.06
2023-05-19T19:29:45.360Z,102125.56
2023-05-19T19:32:12.953Z,102116.88
2023-05-19T19:34:41.115Z,102112.59
2023-05-19T19:37:08.706Z,102114.91
2023-05-19T19:39:36.148Z,102116.28
2023-05-19T19:42:05.539Z,102114.59
2023-05-19T19:44:32.979Z,102113.84
2023-05-19T19:47:02.952Z,102116.28
2023-05-19T19:49:30.612Z,102110.28
2023-05-19T19:52:01.157Z,102111.03
2023-05-19T19:54:30.699Z,102113.44
2023-05-19T19:57:00.427Z,102106.63
2023-05-19T19:59:30.057Z,102111.75
2023-05-19T20:02:00.306Z,102118.56
2023-05-19T20:04:28.122Z,102117.34
2023-05-19T20:06:55.621Z,102116.28
2023-05-19T20:09:23.177Z,102117.16
2023-05-19T20:11:50.666Z,102119.75
2023-05-19T20:14:19.158Z,102117.31
2023-05-19T20:16:48.141Z,102118.63
2023-05-19T20:19:15.725Z,102127.38
2023-05-19T20:21:43.240Z,102126.75
2023-05-19T20:24:10.961Z,102133.06
2023-05-19T20:26:38.434Z,102137.63
2023-05-19T20:29:06.019Z,102137.72
2023-05-19T20:31:33.482Z,102132.53
2023-05-19T20:34:02.363Z,102144.13
2023-05-19T20:36:29.877Z,102154.41
2023-05-19T20:38:57.347Z,102155.09
2023-05-19T20:41:24.804Z,102142.50
2023-05-19T20:43:52.260Z,102147.50
2023-05-19T20:46:19.747Z,102143.94
2023-05-19T20:48:47.246Z,102154.50
2023-05-19T20:51:16.079Z,102148.91
2023-05-19T20:53:43.679Z,102155.78
2023-05-19T20:56:11.329Z,102152.09
2023-05-19T20:58:38.790Z,102152.06
2023-05-19T21:01:06.502Z,102149.34
2023-05-19T21:03:34.106Z,102151.16
2023-05-19T21:06:01.641Z,102150.09
2023-05-19T21:08:30.832Z,102148.97
2023-05-19T21:10:59.261Z,102147.84
2023-05-19T21:13:26.832Z,102148.81
2023-05-19T21:15:54.287Z,102147.88
2023-05-19T21:18:21.777Z,102157.66
2023-05-19T21:20:49.360Z,102156.44
2023-05-19T21:23:16.837Z,102160.19
2023-05-19T21:25:45.701Z,102166.44
2023-05-19T21:28:13.359Z,102166.75
2023-05-19T21:30:41.602Z,102168.22
2023-05-19T21:33:09.235Z,102169.63
2023-05-19T21:35:37.848Z,102170.31
2023-05-19T21:38:15.624Z,102171.50
2023-05-19T21:40:52.008Z,102176.63
2023-05-19T21:43:19.666Z,102171.53
2023-05-19T21:45:47.126Z,102171.41
2023-05-19T21:48:14.609Z,102178.81
2023-05-19T21:50:42.116Z,102180.13
2023-05-19T21:53:09.645Z,102180.88
2023-05-19T21:55:37.097Z,102175.09
2023-05-19T21:58:06.133Z,102178.44
2023-05-19T22:00:34.249Z,102183.56
2023-05-19T22:03:01.927Z,102179.75
2023-05-19T22:05:30.322Z,102184.97
2023-05-19T22:07:57.988Z,102182.53
2023-05-19T22:10:25.520Z,102172.03
2023-05-19T22:12:53.093Z,102181.53
2023-05-19T22:15:22.049Z,102185.00
2023-05-19T22:17:49.579Z,102190.69
2023-05-19T22:20:17.285Z,102188.09
2023-05-19T22:22:44.783Z,102192.38
2023-05-19T22:25:12.219Z,102184.25
2023-05-19T22:27:39.688Z,102185.41
2023-05-19T22:30:08.581Z,102186.88
2023-05-19T22:32:37.456Z,102182.50
2023-05-19T22:35:06.585Z,102194.22
2023-05-19T22:37:34.116Z,102195.63
2023-05-19T22:40:01.571Z,102193.16
2023-05-19T22:42:29.018Z,102191.41
2023-05-19T22:44:56.474Z,102192.16
2023-05-19T22:47:23.952Z,102198.38
2023-05-19T22:49:54.172Z,102194.88
2023-05-19T22:52:22.344Z,102202.81
2023-05-19T22:54:49.794Z,102208.88
2023-05-19T22:57:17.703Z,102201.06
2023-05-19T22:59:45.211Z,102208.06
2023-05-19T23:02:12.774Z,102206.53
2023-05-19T23:04:40.289Z,102205.56
2023-05-19T23:07:09.177Z,102195.41
2023-05-19T23:09:36.606Z,102197.38
2023-05-19T23:12:04.241Z,102192.78
2023-05-19T23:14:31.731Z,102197.69
2023-05-19T23:16:59.315Z,102201.31
2023-05-19T23:19:28.345Z,102205.38
2023-05-19T23:21:55.985Z,102202.16
2023-05-19T23:24:24.778Z,102194.38
2023-05-19T23:26:52.350Z,102194.66
2023-05-19T23:29:19.858Z,102199.38
2023-05-19T23:31:47.366Z,102203.75
2023-05-19T23:34:14.863Z,102204.31
2023-05-19T23:36:42.386Z,102198.44
2023-05-19T23:39:09.947Z,102198.16
2023-05-19T23:41:38.789Z,102196.00
2023-05-19T23:44:06.496Z,102193.19
2023-05-19T23:46:33.973Z,102199.28
2023-05-19T23:49:01.591Z,102194.66
2023-05-19T23:51:29.034Z,102189.41
2023-05-19T23:53:56.495Z,102188.69
2023-05-19T23:56:24.004Z,102194.16
2023-05-19T23:58:52.764Z,102198.81
